createdAt,value
2019-04-04T00:01:22.661Z,29.25
2019-04-04T00:03:51.862Z,29.32
2019-04-04T00:06:20.623Z,30.50
2019-04-04T00:08:49.093Z,27.42
2019-04-04T00:11:17.558Z,27.80
2019-04-04T00:13:46.064Z,27.42
2019-04-04T00:16:15.976Z,27.22
2019-04-04T00:18:45.198Z,27.65
2019-04-04T00:21:13.762Z,28.50
2019-04-04T00:23:42.174Z,26.97
2019-04-04T00:26:11.400Z,26.62
2019-04-04T00:28:39.915Z,26.60
2019-04-04T00:31:08.809Z,28.42
2019-04-04T00:33:37.600Z,28.95
2019-04-04T00:36:06.046Z,26.75
2019-04-04T00:38:37.710Z,29.72
2019-04-04T00:41:04.991Z,29.10
2019-04-04T00:43:33.819Z,30.27
2019-04-04T00:46:02.278Z,28.85
2019-04-04T00:48:32.179Z,27.80
2019-04-04T00:51:01.032Z,29.30
2019-04-04T00:53:29.743Z,30.15
2019-04-04T00:55:58.438Z,33.05
2019-04-04T00:58:27.273Z,29.32
2019-04-04T01:00:55.711Z,28.32
2019-04-04T01:03:24.181Z,31.12
2019-04-04T01:05:52.582Z,28.23
2019-04-04T01:08:21.412Z,27.93
2019-04-04T01:10:50.218Z,31.00
2019-04-04T01:13:18.633Z,28.42
2019-04-04T01:15:47.443Z,28.67
2019-04-04T01:18:15.868Z,28.77
2019-04-04T01:20:44.323Z,29.07
2019-04-04T01:23:12.734Z,28.35
2019-04-04T01:25:41.186Z,29.57
2019-04-04T01:28:09.903Z,26.30
2019-04-04T01:30:38.316Z,26.52
2019-04-04T01:33:06.775Z,25.10
2019-04-04T01:35:36.482Z,27.95
2019-04-04T01:38:04.975Z,26.52
2019-04-04T01:40:33.860Z,26.62
2019-04-04T01:43:02.884Z,25.40
2019-04-04T01:45:31.290Z,29.07
2019-04-04T01:48:02.488Z,24.20
2019-04-04T01:50:31.899Z,25.70
2019-04-04T01:53:00.309Z,25.02
2019-04-04T01:55:29.066Z,25.12
2019-04-04T01:57:57.521Z,23.75
2019-04-04T02:00:25.930Z,28.95
2019-04-04T02:02:54.627Z,26.70
2019-04-04T02:05:23.072Z,28.12
2019-04-04T02:07:51.554Z,30.20
2019-04-04T02:10:20.361Z,26.15
2019-04-04T02:12:48.787Z,27.32
2019-04-04T02:15:17.260Z,27.50
2019-04-04T02:17:45.744Z,27.30
2019-04-04T02:20:14.182Z,26.60
2019-04-04T02:22:48.431Z,26.33
2019-04-04T02:25:16.878Z,26.95
2019-04-04T02:27:45.438Z,26.65
2019-04-04T02:30:16.014Z,27.37
2019-04-04T02:32:44.095Z,29.10
2019-04-04T02:35:12.535Z,27.17
2019-04-04T02:37:41.015Z,26.00
2019-04-04T02:40:10.051Z,29.50
2019-04-04T02:42:39.031Z,26.42
2019-04-04T02:45:07.527Z,26.90
2019-04-04T02:47:36.047Z,25.50
2019-04-04T02:50:06.019Z,26.37
2019-04-04T02:52:34.473Z,26.02
2019-04-04T02:55:02.912Z,27.60
2019-04-04T02:57:31.660Z,27.98
2019-04-04T03:00:00.394Z,26.30
2019-04-04T03:02:29.219Z,32.28
2019-04-04T03:04:57.921Z,26.77
2019-04-04T03:07:29.893Z,25.88
2019-04-04T03:09:56.701Z,24.87
2019-04-04T03:12:26.153Z,24.05
2019-04-04T03:14:55.337Z,23.40
2019-04-04T03:17:23.786Z,22.42
2019-04-04T03:19:52.477Z,22.58
2019-04-04T03:22:20.921Z,23.35
2019-04-04T03:24:49.479Z,24.00
2019-04-04T03:27:18.260Z,20.25
2019-04-04T03:29:46.727Z,22.07
2019-04-04T03:32:16.738Z,21.70
2019-04-04T03:34:50.087Z,21.05
2019-04-04T03:37:15.718Z,21.68
2019-04-04T03:39:44.151Z,16.55
2019-04-04T03:42:12.973Z,17.32
2019-04-04T03:44:41.568Z,12.18
2019-04-04T03:47:11.217Z,12.43
2019-04-04T03:49:40.060Z,12.28
2019-04-04T03:52:11.229Z,13.65
2019-04-04T03:54:38.637Z,12.28
2019-04-04T03:57:11.125Z,13.90
2019-04-04T03:59:37.514Z,14.45
2019-04-04T04:02:05.952Z,15.83
2019-04-04T04:04:34.726Z,16.07
2019-04-04T04:07:03.169Z,17.25
2019-04-04T04:09:31.577Z,18.32
2019-04-04T04:12:00.046Z,20.32
2019-04-04T04:14:28.862Z,17.35
2019-04-04T04:16:57.272Z,18.10
2019-04-04T04:19:29.872Z,18.52
2019-04-04T04:21:56.654Z,20.40
2019-04-04T04:24:26.716Z,17.55
2019-04-04T04:26:55.576Z,14.18
2019-04-04T04:29:24.137Z,14.07
2019-04-04T04:31:52.827Z,12.50
2019-04-04T04:34:21.393Z,15.55
2019-04-04T04:36:50.099Z,15.00
2019-04-04T04:39:18.544Z,15.83
2019-04-04T04:41:46.955Z,14.23
2019-04-04T04:44:15.403Z,12.23
2019-04-04T04:46:44.218Z,12.58
2019-04-04T04:49:13.008Z,13.22
2019-04-04T04:51:44.080Z,13.43
2019-04-04T04:54:11.551Z,18.67
2019-04-04T04:56:39.970Z,15.98
2019-04-04T04:59:08.663Z,14.15
2019-04-04T05:01:40.541Z,15.25
2019-04-04T05:04:08.150Z,13.70
2019-04-04T05:06:36.983Z,12.65
2019-04-04T05:09:06.294Z,14.98
2019-04-04T05:11:34.706Z,15.68
2019-04-04T05:14:03.157Z,17.17
2019-04-04T05:16:31.614Z,17.80
2019-04-04T05:19:00.370Z,12.15
2019-04-04T05:21:28.975Z,21.27
2019-04-04T05:23:57.444Z,13.03
2019-04-04T05:26:26.151Z,16.70
2019-04-04T05:28:57.022Z,14.93
2019-04-04T05:31:24.669Z,18.80
2019-04-04T05:33:53.500Z,17.57
2019-04-04T05:36:22.219Z,19.37
2019-04-04T05:38:50.658Z,20.68
2019-04-04T05:41:19.108Z,20.70
2019-04-04T05:43:47.515Z,14.40
2019-04-04T05:46:16.794Z,11.68
2019-04-04T05:48:46.366Z,11.45
2019-04-04T05:51:15.921Z,11.73
2019-04-04T05:53:44.465Z,13.22
2019-04-04T05:56:14.976Z,15.38
2019-04-04T05:58:42.968Z,15.08
2019-04-04T06:01:16.348Z,17.65
2019-04-04T06:03:47.213Z,14.28
2019-04-04T06:06:15.287Z,16.05
2019-04-04T06:08:43.780Z,16.17
2019-04-04T06:11:20.978Z,18.57
2019-04-04T06:13:48.423Z,21.15
2019-04-04T06:16:16.867Z,23.27
2019-04-04T06:18:45.643Z,22.32
2019-04-04T06:21:14.236Z,20.80
2019-04-04T06:23:42.652Z,15.23
2019-04-04T06:26:11.162Z,17.07
2019-04-04T06:28:39.566Z,21.93
2019-04-04T06:31:08.016Z,20.43
2019-04-04T06:33:36.418Z,27.95
2019-04-04T06:36:04.861Z,27.35
2019-04-04T06:38:33.308Z,33.00
2019-04-04T06:41:01.718Z,33.53
2019-04-04T06:43:30.167Z,30.45
2019-04-04T06:45:58.575Z,35.88
2019-04-04T06:48:29.336Z,39.08
2019-04-04T06:50:57.747Z,36.35
2019-04-04T06:53:31.970Z,36.00
2019-04-04T06:56:01.037Z,37.45
2019-04-04T06:58:29.605Z,35.58
2019-04-04T07:00:58.336Z,30.92
2019-04-04T07:03:27.847Z,35.35
2019-04-04T07:05:56.903Z,28.17
2019-04-04T07:08:25.704Z,31.42
2019-04-04T07:10:58.294Z,30.68
2019-04-04T07:13:27.308Z,33.38
2019-04-04T07:16:06.375Z,30.88
2019-04-04T07:18:24.736Z,30.52
2019-04-04T07:20:53.181Z,27.15
2019-04-04T07:23:21.947Z,26.82
2019-04-04T07:25:53.302Z,28.98
2019-04-04T07:28:20.943Z,27.80
2019-04-04T07:30:49.459Z,26.87
2019-04-04T07:33:20.016Z,30.45
2019-04-04T07:35:48.892Z,31.82
2019-04-04T07:38:18.288Z,36.83
2019-04-04T07:40:47.795Z,33.58
2019-04-04T07:43:17.130Z,37.13
2019-04-04T07:45:46.419Z,34.43
2019-04-04T07:48:17.659Z,36.90
2019-04-04T07:50:45.255Z,40.00
2019-04-04T07:53:14.051Z,44.65
2019-04-04T07:55:42.923Z,38.88
2019-04-04T07:58:11.378Z,40.83
2019-04-04T08:00:40.177Z,40.15
2019-04-04T08:03:08.607Z,36.13
2019-04-04T08:05:37.427Z,37.42
2019-04-04T08:08:06.218Z,38.60
2019-04-04T08:10:34.662Z,35.48
2019-04-04T08:13:03.063Z,29.85
2019-04-04T08:15:31.865Z,30.40
2019-04-04T08:18:00.587Z,27.93
2019-04-04T08:20:29.018Z,26.00
2019-04-04T08:22:57.459Z,29.23
2019-04-04T08:25:25.875Z,27.70
2019-04-04T08:27:54.391Z,26.20
2019-04-04T08:30:22.918Z,25.60
2019-04-04T08:32:51.335Z,28.47
2019-04-04T08:35:19.792Z,23.22
2019-04-04T08:37:48.205Z,21.40
2019-04-04T08:40:16.647Z,25.48
2019-04-04T08:42:45.450Z,28.35
2019-04-04T08:45:13.890Z,25.92
2019-04-04T08:47:42.295Z,24.77
2019-04-04T08:50:11.025Z,25.90
2019-04-04T08:52:39.438Z,26.20
2019-04-04T08:55:08.260Z,23.20
2019-04-04T08:57:36.667Z,21.02
2019-04-04T09:00:07.503Z,23.57
2019-04-04T09:02:35.922Z,20.02
2019-04-04T09:05:11.680Z,21.90
2019-04-04T09:07:36.058Z,22.73
2019-04-04T09:10:06.452Z,22.87
2019-04-04T09:12:34.901Z,25.68
2019-04-04T09:15:04.146Z,23.80
2019-04-04T09:17:32.595Z,24.05
2019-04-04T09:20:00.997Z,21.48
2019-04-04T09:22:29.856Z,19.92
2019-04-04T09:24:58.298Z,22.05
2019-04-04T09:27:26.713Z,20.48
2019-04-04T09:29:55.154Z,25.35
2019-04-04T09:32:24.066Z,21.60
2019-04-04T09:34:52.586Z,25.80
2019-04-04T09:37:20.995Z,21.85
2019-04-04T09:39:49.434Z,21.52
2019-04-04T09:42:17.838Z,21.35
2019-04-04T09:44:46.355Z,24.20
2019-04-04T09:47:14.826Z,22.27
2019-04-04T09:49:43.278Z,20.43
2019-04-04T09:52:12.010Z,21.70
2019-04-04T09:54:40.427Z,22.42
2019-04-04T09:57:08.927Z,22.22
2019-04-04T09:59:37.328Z,19.20
2019-04-04T10:02:05.787Z,21.25
2019-04-04T10:04:34.338Z,22.20
2019-04-04T10:07:02.750Z,20.85
2019-04-04T10:09:31.219Z,22.35
2019-04-04T10:12:00.009Z,24.00
2019-04-04T10:14:28.419Z,16.55
2019-04-04T10:16:57.227Z,18.60
2019-04-04T10:19:26.018Z,18.25
2019-04-04T10:21:54.462Z,16.27
2019-04-04T10:24:22.902Z,14.70
2019-04-04T10:26:51.351Z,14.05
2019-04-04T10:29:20.251Z,13.15
2019-04-04T10:31:48.659Z,12.50
2019-04-04T10:34:17.255Z,11.65
2019-04-04T10:36:45.915Z,12.73
2019-04-04T10:39:14.362Z,14.20
2019-04-04T10:41:42.768Z,11.68
2019-04-04T10:44:11.576Z,14.50
2019-04-04T10:46:39.967Z,11.45
2019-04-04T10:49:08.506Z,8.13
2019-04-04T10:51:36.911Z,7.80
2019-04-04T10:54:05.351Z,8.45
2019-04-04T10:56:33.750Z,8.23
2019-04-04T10:59:02.525Z,7.33
2019-04-04T11:01:30.922Z,7.47
2019-04-04T11:03:59.687Z,5.80
2019-04-04T11:06:28.473Z,8.68
2019-04-04T11:08:57.263Z,9.15
2019-04-04T11:11:25.667Z,6.70
2019-04-04T11:13:54.066Z,7.20
2019-04-04T11:16:29.909Z,7.95
2019-04-04T11:18:53.058Z,8.38
2019-04-04T11:21:21.502Z,6.97
2019-04-04T11:23:49.903Z,7.28
2019-04-04T11:26:18.309Z,6.35
2019-04-04T11:28:46.751Z,7.45
2019-04-04T11:31:15.450Z,7.85
2019-04-04T11:33:44.244Z,7.85
2019-04-04T11:36:12.643Z,6.87
2019-04-04T11:38:43.992Z,9.78
2019-04-04T11:41:11.607Z,4.80
2019-04-04T11:43:40.050Z,7.35
2019-04-04T11:46:08.454Z,6.12
2019-04-04T11:48:36.886Z,9.83
2019-04-04T11:51:05.634Z,9.13
2019-04-04T11:53:34.162Z,7.00
2019-04-04T11:56:02.590Z,8.15
2019-04-04T11:58:31.036Z,7.97
2019-04-04T12:01:13.005Z,8.08
2019-04-04T12:03:41.487Z,9.05
2019-04-04T12:06:10.182Z,7.10
2019-04-04T12:08:38.970Z,7.42
2019-04-04T12:11:07.502Z,8.98
2019-04-04T12:13:35.907Z,7.00
2019-04-04T12:16:04.345Z,7.92
2019-04-04T12:18:32.792Z,10.18
2019-04-04T12:21:01.190Z,8.65
2019-04-04T12:23:29.785Z,9.25
2019-04-04T12:25:58.582Z,6.97
2019-04-04T12:28:27.392Z,7.33
2019-04-04T12:30:55.823Z,7.90
2019-04-04T12:33:24.508Z,7.03
2019-04-04T12:35:53.415Z,8.25
2019-04-04T12:38:22.110Z,9.33
2019-04-04T12:40:50.848Z,8.80
2019-04-04T12:43:19.401Z,8.73
2019-04-04T12:45:47.911Z,8.18
2019-04-04T12:48:16.343Z,8.35
2019-04-04T12:50:45.029Z,7.85
2019-04-04T12:53:16.088Z,6.92
2019-04-04T12:55:44.839Z,8.48
2019-04-04T12:58:13.234Z,9.60
2019-04-04T13:00:42.070Z,9.10
2019-04-04T13:03:10.545Z,6.90
2019-04-04T13:05:39.051Z,6.22
2019-04-04T13:08:07.592Z,5.35
2019-04-04T13:10:36.486Z,6.17
2019-04-04T13:13:04.918Z,6.72
2019-04-04T13:15:33.350Z,5.45
2019-04-04T13:18:01.755Z,5.87
2019-04-04T13:20:30.197Z,4.90
2019-04-04T13:22:58.594Z,5.10
2019-04-04T13:25:27.492Z,3.50
2019-04-04T13:27:56.174Z,5.28
2019-04-04T13:30:24.606Z,4.00
2019-04-04T13:32:53.019Z,3.10
2019-04-04T13:35:21.446Z,4.47
2019-04-04T13:37:50.742Z,3.17
2019-04-04T13:40:19.190Z,3.85
2019-04-04T13:42:47.934Z,4.10
2019-04-04T13:45:16.720Z,4.25
2019-04-04T13:47:45.571Z,4.08
2019-04-04T13:50:13.978Z,5.53
2019-04-04T13:52:42.431Z,5.25
2019-04-04T13:55:10.967Z,2.50
2019-04-04T13:57:39.635Z,3.37
2019-04-04T14:00:08.540Z,4.30
2019-04-04T14:02:36.942Z,3.33
2019-04-04T14:05:10.138Z,3.05
2019-04-04T14:07:37.950Z,2.60
2019-04-04T14:10:07.426Z,2.72
2019-04-04T14:12:35.861Z,4.22
2019-04-04T14:15:09.280Z,5.80
2019-04-04T14:17:37.689Z,3.08
2019-04-04T14:20:10.717Z,3.50
2019-04-04T14:22:39.123Z,2.67
2019-04-04T14:25:07.640Z,3.65
2019-04-04T14:27:36.358Z,3.35
2019-04-04T14:30:08.012Z,4.53
2019-04-04T14:32:36.410Z,3.22
2019-04-04T14:35:07.202Z,5.08
2019-04-04T14:37:35.886Z,2.90
2019-04-04T14:40:06.162Z,3.70
2019-04-04T14:42:34.572Z,4.12
2019-04-04T14:45:06.325Z,4.60
2019-04-04T14:47:33.427Z,2.05
2019-04-04T14:50:04.621Z,2.60
2019-04-04T14:52:32.307Z,2.40
2019-04-04T14:55:00.746Z,4.17
2019-04-04T14:57:29.514Z,2.25
2019-04-04T14:59:58.303Z,3.08
2019-04-04T15:02:26.730Z,3.65
2019-04-04T15:04:55.527Z,2.72
2019-04-04T15:07:24.310Z,2.15
2019-04-04T15:09:52.751Z,2.65
2019-04-04T15:12:21.162Z,2.87
2019-04-04T15:14:49.579Z,3.05
2019-04-04T15:17:18.021Z,3.37
2019-04-04T15:19:46.463Z,3.05
2019-04-04T15:22:14.862Z,3.95
2019-04-04T15:24:43.499Z,2.83
2019-04-04T15:27:11.910Z,4.65
2019-04-04T15:29:40.445Z,3.15
2019-04-04T15:32:08.847Z,2.40
2019-04-04T15:34:37.646Z,2.15
2019-04-04T15:37:06.075Z,3.33
2019-04-04T15:39:34.519Z,2.70
2019-04-04T15:42:03.018Z,3.20
2019-04-04T15:44:31.457Z,3.08
2019-04-04T15:46:59.855Z,3.25
2019-04-04T15:49:28.319Z,4.85
2019-04-04T15:51:59.579Z,3.30
2019-04-04T15:54:27.786Z,6.47
2019-04-04T15:56:56.579Z,4.55
2019-04-04T15:59:25.303Z,4.90
2019-04-04T16:01:53.777Z,33.25
2019-04-04T16:04:22.652Z,6.55
2019-04-04T16:06:51.139Z,5.10
2019-04-04T16:09:20.098Z,7.80
2019-04-04T16:11:50.156Z,4.85
2019-04-04T16:14:18.598Z,3.92
2019-04-04T16:16:47.036Z,7.85
2019-04-04T16:19:15.473Z,5.33
2019-04-04T16:21:44.158Z,7.00
2019-04-04T16:24:12.893Z,3.42
2019-04-04T16:26:41.412Z,53.33
2019-04-04T16:29:09.809Z,8.75
2019-04-04T16:31:38.250Z,3.80
2019-04-04T16:34:06.938Z,4.92
2019-04-04T16:36:35.687Z,46.60
2019-04-04T16:39:07.555Z,4.67
2019-04-04T16:41:36.195Z,5.53
2019-04-04T16:44:05.482Z,3.62
2019-04-04T16:46:34.784Z,5.05
2019-04-04T16:49:03.226Z,3.35
2019-04-04T16:51:31.668Z,3.67
2019-04-04T16:54:00.123Z,5.30
2019-04-04T16:56:28.806Z,4.95
2019-04-04T16:58:57.203Z,6.12
2019-04-04T17:01:26.200Z,5.28
2019-04-04T17:04:01.431Z,3.92
2019-04-04T17:06:24.745Z,4.65
2019-04-04T17:08:53.550Z,15.20
2019-04-04T17:11:21.951Z,12.70
2019-04-04T17:13:50.408Z,4.25
2019-04-04T17:16:21.227Z,3.98
2019-04-04T17:18:48.991Z,3.20
2019-04-04T17:21:17.435Z,11.95
2019-04-04T17:23:46.337Z,5.67
2019-04-04T17:26:14.929Z,8.63
2019-04-04T17:28:43.578Z,4.78
2019-04-04T17:31:12.484Z,6.65
2019-04-04T17:33:41.156Z,4.40
2019-04-04T17:36:09.681Z,7.90
2019-04-04T17:38:38.582Z,6.03
2019-04-04T17:41:07.019Z,6.85
2019-04-04T17:43:36.745Z,7.00
2019-04-04T17:46:05.606Z,9.18
2019-04-04T17:48:34.626Z,6.78
2019-04-04T17:51:03.199Z,7.85
2019-04-04T17:53:31.900Z,4.90
2019-04-04T17:56:00.830Z,5.85
2019-04-04T17:58:29.853Z,6.10
2019-04-04T18:00:58.747Z,5.00
2019-04-04T18:03:27.179Z,5.65
2019-04-04T18:05:55.614Z,5.45
2019-04-04T18:08:24.015Z,5.40
2019-04-04T18:10:52.856Z,5.45
2019-04-04T18:13:21.254Z,3.67
2019-04-04T18:15:50.003Z,6.40
2019-04-04T18:18:18.926Z,4.28
2019-04-04T18:20:47.413Z,4.85
2019-04-04T18:23:15.834Z,5.45
2019-04-04T18:25:44.258Z,3.65
2019-04-04T18:28:12.716Z,7.17
2019-04-04T18:30:41.512Z,6.10
2019-04-04T18:33:09.947Z,6.45
2019-04-04T18:35:38.691Z,4.90
2019-04-04T18:38:07.132Z,6.72
2019-04-04T18:40:35.552Z,5.50
2019-04-04T18:43:03.996Z,7.03
2019-04-04T18:45:34.038Z,6.10
2019-04-04T18:48:02.483Z,6.67
2019-04-04T18:50:30.882Z,5.65
2019-04-04T18:52:59.319Z,6.10
2019-04-04T18:55:27.726Z,5.20
2019-04-04T18:57:56.139Z,6.60
2019-04-04T19:00:25.038Z,8.38
2019-04-04T19:02:53.774Z,5.55
2019-04-04T19:05:22.335Z,6.78
2019-04-04T19:07:50.734Z,6.22
2019-04-04T19:10:19.244Z,8.03
2019-04-04T19:12:48.007Z,13.60
2019-04-04T19:15:17.467Z,7.47
2019-04-04T19:17:46.285Z,6.85
2019-04-04T19:20:14.782Z,7.15
2019-04-04T19:22:43.191Z,6.95
2019-04-04T19:25:13.789Z,5.72
2019-04-04T19:27:41.993Z,8.33
2019-04-04T19:30:10.696Z,6.62
2019-04-04T19:32:39.096Z,7.28
2019-04-04T19:35:08.028Z,6.05
2019-04-04T19:37:36.431Z,7.45
2019-04-04T19:40:05.811Z,5.42
2019-04-04T19:42:34.210Z,5.80
2019-04-04T19:45:03.106Z,7.25
2019-04-04T19:47:31.935Z,6.75
2019-04-04T19:50:00.651Z,5.50
2019-04-04T19:52:29.094Z,6.65
2019-04-04T19:54:57.934Z,8.73
2019-04-04T19:57:26.387Z,7.12
2019-04-04T19:59:55.140Z,8.08
2019-04-04T20:02:23.551Z,8.53
2019-04-04T20:04:51.999Z,7.47
2019-04-04T20:07:20.470Z,8.83
2019-04-04T20:09:49.235Z,7.25
2019-04-04T20:12:17.830Z,8.00
2019-04-04T20:14:46.307Z,7.90
2019-04-04T20:17:15.043Z,9.83
2019-04-04T20:19:44.002Z,10.18
2019-04-04T20:22:12.441Z,9.70
2019-04-04T20:24:41.249Z,8.70
2019-04-04T20:27:09.962Z,8.88
2019-04-04T20:29:38.769Z,8.28
2019-04-04T20:32:07.216Z,11.08
2019-04-04T20:34:35.710Z,8.60
2019-04-04T20:37:04.158Z,7.75
2019-04-04T20:39:32.559Z,8.03
2019-04-04T20:42:01.428Z,10.10
2019-04-04T20:44:29.835Z,9.63
2019-04-04T20:46:58.566Z,8.73
2019-04-04T20:49:27.322Z,10.05
2019-04-04T20:51:55.718Z,9.65
2019-04-04T20:54:24.153Z,9.33
2019-04-04T20:56:52.554Z,10.88
2019-04-04T20:59:21.468Z,7.55
2019-04-04T21:01:49.898Z,8.68
2019-04-04T21:04:18.355Z,9.48
2019-04-04T21:06:47.171Z,9.88
2019-04-04T21:09:15.951Z,10.80
2019-04-04T21:11:45.051Z,10.10
2019-04-04T21:14:13.830Z,11.45
2019-04-04T21:16:42.240Z,12.13
2019-04-04T21:19:11.146Z,10.60
2019-04-04T21:21:39.499Z,9.95
2019-04-04T21:24:07.908Z,9.58
2019-04-04T21:26:36.747Z,10.28
2019-04-04T21:29:05.167Z,8.33
2019-04-04T21:31:33.583Z,10.10
2019-04-04T21:34:02.026Z,8.98
2019-04-04T21:36:30.430Z,9.03
2019-04-04T21:39:00.159Z,8.35
2019-04-04T21:41:28.558Z,9.63
2019-04-04T21:44:08.129Z,8.70
2019-04-04T21:46:27.078Z,11.22
2019-04-04T21:48:55.495Z,10.68
2019-04-04T21:51:23.935Z,13.70
2019-04-04T21:53:52.381Z,11.73
2019-04-04T21:56:21.178Z,11.60
2019-04-04T21:58:49.595Z,11.45
2019-04-04T22:01:18.278Z,12.82
2019-04-04T22:03:46.744Z,15.35
2019-04-04T22:06:15.156Z,13.40
2019-04-04T22:08:43.555Z,16.00
2019-04-04T22:11:12.007Z,13.68
2019-04-04T22:13:40.743Z,11.45
2019-04-04T22:16:09.471Z,11.65
2019-04-04T22:18:38.251Z,13.38
2019-04-04T22:21:06.692Z,13.80
2019-04-04T22:23:35.462Z,11.97
2019-04-04T22:26:03.907Z,13.18
2019-04-04T22:28:32.315Z,12.15
2019-04-04T22:31:00.824Z,12.10
2019-04-04T22:33:29.229Z,12.40
2019-04-04T22:35:57.663Z,11.70
2019-04-04T22:38:26.108Z,10.45
2019-04-04T22:40:54.515Z,15.40
2019-04-04T22:43:22.955Z,11.05
2019-04-04T22:45:51.407Z,15.65
2019-04-04T22:48:19.843Z,11.65
2019-04-04T22:50:48.305Z,10.45
2019-04-04T22:53:16.714Z,12.23
2019-04-04T22:55:45.122Z,12.47
2019-04-04T22:58:13.839Z,11.20
2019-04-04T23:00:42.572Z,12.25
2019-04-04T23:03:11.083Z,10.72
2019-04-04T23:05:39.767Z,11.33
2019-04-04T23:08:08.211Z,13.13
2019-04-04T23:10:36.879Z,10.05
2019-04-04T23:13:05.626Z,11.38
2019-04-04T23:15:34.475Z,11.45
2019-04-04T23:18:02.935Z,12.37
2019-04-04T23:20:31.339Z,11.70
2019-04-04T23:23:01.173Z,11.25
2019-04-04T23:25:29.839Z,11.65
2019-04-04T23:27:58.694Z,11.20
2019-04-04T23:30:27.207Z,10.08
2019-04-04T23:32:55.620Z,12.95
2019-04-04T23:35:24.067Z,11.88
2019-04-04T23:37:52.467Z,9.63
2019-04-04T23:40:20.899Z,14.20
2019-04-04T23:42:49.356Z,11.60
2019-04-04T23:45:17.776Z,11.60
2019-04-04T23:47:46.318Z,11.68
2019-04-04T23:50:14.765Z,11.53
2019-04-04T23:52:43.674Z,11.15
2019-04-04T23:55:12.034Z,14.40
2019-04-04T23:57:40.945Z,13.30
